OOCL Atlanta — VRAR6 — position and weather

sailwx.info

Track history (hours):
 
Tides and Currents Weather Stations Pressure Air Temp Water Temp Dewpoint Dewpoint Depression Visibility Wind Speed Wind Dir Waves Ship Positions

OOCL Atlanta

Last reported at 2014-Nov-26 04:32 UTC. Time now 2014-Nov-26 05:24 UTC.
Position N 49°01' W 123°09'.

Length 323 m; beam 42.8 m; draft 14.5 m.

Type: Cargo ship. MMSI: 477920300.

Date/timePositionNaut miles runAvg speedWind from/ knotsBaromVisibWave heightAir tempDewpointWater temp
2014-Nov-26 04:32N 49°01' W 123°09'0 0.0
2014-Nov-26 03:32N 49°01' W 123°09'0 0.0
2014-Nov-26 02:32N 49°01' W 123°09'0 0.0
2014-Nov-26 01:32N 49°01' W 123°09'0 0.0
2014-Nov-26 00:32N 49°01' W 123°09'0 0.0
2014-Nov-25 23:32N 49°01' W 123°09'0 0.0
2014-Nov-25 22:32N 49°01' W 123°09'2 2.2
2014-Nov-25 21:34N 48°59' W 123°09'1414.3
2014-Nov-25 20:33N 48°46' W 123°03'1514.5
2014-Nov-25 19:33N 48°32' W 123°12'1312.9
2014-Nov-25 18:33N 48°21' W 123°22'1111.1
2014-Nov-25 17:33N 48°14' W 123°34'1716.4
2014-Nov-25 16:32N 48°15' W 123°59'1515.5
2014-Nov-25 15:33N 48°21' W 124°20'1515.3
2014-Nov-25 14:33N 48°28' W 124°41'1514.5
2014-Nov-25 13:33N 48°29' W 125°03'1514.9
2014-Nov-25 12:33N 48°30' W 125°25'1615.5
2014-Nov-25 11:33N 48°32' W 125°48'1515.2
2014-Nov-25 10:33N 48°35' W 126°11'1515.4
2014-Nov-25 09:33N 48°37' W 126°34'1515.3
2014-Nov-25 08:33N 48°40' W 126°57'3315.1
2014-Nov-25 06:23N 48°45' W 127°46'  
2014-Nov-19 00:00N 48°36' E 164°54'81517.0 1005.310.8 4.0 0.9 4.5
2014-Nov-17 00:00N 43°18' E 146°54'   270 / 41019.310.8 9.0-0.1 7.0
Track history (hours):
 
Tides and Currents Weather Stations Pressure Air Temp Water Temp Dewpoint Dewpoint Depression Visibility Wind Speed Wind Dir Waves Ship Positions

OOCL Atlanta

Last reported at 2014-Nov-26 04:32 UTC. Time now 2014-Nov-26 05:24 UTC.
Position N 49°01' W 123°09'.

Length 323 m; beam 42.8 m; draft 14.5 m.

Type: Cargo ship. MMSI: 477920300.

Date/timePositionNaut miles runAvg speedWind from/ knotsBaromVisibWave heightAir tempDewpointWater temp
2014-Nov-26 04:32N 49°01' W 123°09'0 0.0
2014-Nov-26 03:32N 49°01' W 123°09'0 0.0
2014-Nov-26 02:32N 49°01' W 123°09'0 0.0
2014-Nov-26 01:32N 49°01' W 123°09'0 0.0
2014-Nov-26 00:32N 49°01' W 123°09'0 0.0
2014-Nov-25 23:32N 49°01' W 123°09'0 0.0
2014-Nov-25 22:32N 49°01' W 123°09'2 2.2
2014-Nov-25 21:34N 48°59' W 123°09'1414.3
2014-Nov-25 20:33N 48°46' W 123°03'1514.5
2014-Nov-25 19:33N 48°32' W 123°12'1312.9
2014-Nov-25 18:33N 48°21' W 123°22'1111.1
2014-Nov-25 17:33N 48°14' W 123°34'1716.4
2014-Nov-25 16:32N 48°15' W 123°59'1515.5
2014-Nov-25 15:33N 48°21' W 124°20'1515.3
2014-Nov-25 14:33N 48°28' W 124°41'1514.5
2014-Nov-25 13:33N 48°29' W 125°03'1514.9
2014-Nov-25 12:33N 48°30' W 125°25'1615.5
2014-Nov-25 11:33N 48°32' W 125°48'1515.2
2014-Nov-25 10:33N 48°35' W 126°11'1515.4
2014-Nov-25 09:33N 48°37' W 126°34'1515.3
2014-Nov-25 08:33N 48°40' W 126°57'3315.1
2014-Nov-25 06:23N 48°45' W 127°46'  
2014-Nov-19 00:00N 48°36' E 164°54'81517.0 1005.310.8 4.0 0.9 4.5
2014-Nov-17 00:00N 43°18' E 146°54'   270 / 41019.310.8 9.0-0.1 7.0

Dump ship's entire track history